Time;durP1;ratioP1;P1;durP2;ratioP2;P2;SDS_P1;SDS_P2;PMS_P1;PMS_P2;Temp;Humidity;BMP_temperature;BMP_pressure;BME280_temperature;BME280_humidity;BME280_pressure;Samples;Min_cycle;Max_cycle;Signal;HPM_P1;HPM_P2
2023/04/12 00:01:03;;;;;;;5.30;2.67;;;;;;;18.60;55.43;99830.72;5068950;28;20184;-62
2023/04/12 00:03:29;;;;;;;5.30;2.07;;;;;;;18.57;55.44;99828.63;5066527;28;20176;-61
2023/04/12 00:05:54;;;;;;;2.83;1.50;;;;;;;18.55;55.63;99811.06;5070349;28;20175;-61
2023/04/12 00:08:23;;;;;;;5.60;2.57;;;;;;;18.56;55.59;99806.19;5068507;28;20229;-62
2023/04/12 00:10:49;;;;;;;6.13;2.53;;;;;;;18.53;55.81;99795.50;5078916;28;20183;-62
2023/04/12 00:13:16;;;;;;;3.60;2.33;;;;;;;18.50;55.71;99794.25;5067257;28;20928;-62
2023/04/12 00:15:41;;;;;;;4.20;2.27;;;;;;;18.50;55.75;99797.13;5086827;28;20473;-62
2023/04/12 00:18:07;;;;;;;3.80;2.10;;;;;;;18.48;55.89;99791.00;5084719;28;20386;-62
2023/04/12 00:20:32;;;;;;;3.60;2.00;;;;;;;18.48;56.01;99785.28;5072352;28;20219;-62
2023/04/12 00:22:58;;;;;;;4.67;1.97;;;;;;;18.47;56.11;99783.59;5084337;28;20198;-62
2023/04/12 00:25:23;;;;;;;4.07;2.13;;;;;;;18.49;55.81;99778.34;5084731;28;20183;-62
2023/04/12 00:27:49;;;;;;;3.97;1.97;;;;;;;18.50;55.86;99773.41;5088942;28;20169;-62
2023/04/12 00:30:15;;;;;;;6.50;1.80;;;;;;;18.50;55.79;99764.84;5081141;28;20184;-62
2023/04/12 00:32:40;;;;;;;6.23;2.30;;;;;;;18.48;55.91;99765.25;5068425;28;20172;-61
2023/04/12 00:35:06;;;;;;;7.30;2.20;;;;;;;18.49;56.22;99766.06;5069108;28;20450;-62
2023/04/12 00:37:32;;;;;;;4.70;1.80;;;;;;;18.48;56.29;99759.56;5069514;28;20202;-62
2023/04/12 00:39:57;;;;;;;3.80;2.00;;;;;;;18.47;56.24;99751.34;5075735;28;20718;-62
2023/04/12 00:42:23;;;;;;;4.33;1.90;;;;;;;18.47;56.09;99752.16;5066478;28;20655;-62
2023/04/12 00:44:48;;;;;;;3.50;2.03;;;;;;;18.45;56.23;99751.75;5052100;28;20171;-62
2023/04/12 00:47:14;;;;;;;3.07;1.70;;;;;;;18.48;55.93;99744.41;5051556;28;20206;-62
2023/04/12 00:49:40;;;;;;;3.73;2.20;;;;;;;18.45;56.28;99736.63;5068931;28;20170;-62
2023/04/12 00:52:09;;;;;;;4.80;1.97;;;;;;;18.43;56.45;99728.47;5087918;28;20159;-62
2023/04/12 00:54:35;;;;;;;5.13;1.87;;;;;;;18.43;56.26;99721.91;5049143;28;20263;-62
2023/04/12 00:57:01;;;;;;;3.93;2.27;;;;;;;18.45;56.29;99720.31;5053878;28;20409;-62
2023/04/12 00:59:26;;;;;;;3.63;1.97;;;;;;;18.46;56.46;99712.56;5092510;28;20240;-62
2023/04/12 01:01:53;;;;;;;3.37;1.90;;;;;;;18.48;56.28;99707.25;5093836;28;20179;-62
2023/04/12 01:04:21;;;;;;;3.97;1.63;;;;;;;18.49;56.04;99706.88;5094417;28;20172;-62
2023/04/12 01:07:26;;;;;;;7.23;2.97;;;;;;;18.50;56.33;99693.38;5072243;28;20465;-62
2023/04/12 01:10:11;;;;;;;5.20;1.90;;;;;;;18.51;56.26;99687.28;5076523;28;20401;-62
2023/04/12 01:13:03;;;;;;;4.17;2.03;;;;;;;18.52;56.06;99686.06;5093530;28;20760;-62
2023/04/12 01:15:30;;;;;;;5.07;2.20;;;;;;;18.53;56.15;99675.47;5089534;28;20468;-62
2023/04/12 01:17:58;;;;;;;2.83;1.60;;;;;;;18.53;56.06;99670.56;5077928;28;20413;-62
2023/04/12 01:20:26;;;;;;;4.63;2.07;;;;;;;18.53;56.11;99664.84;5093142;28;20467;-62
2023/04/12 01:23:10;;;;;;;4.87;1.80;;;;;;;18.52;56.22;99663.19;5064145;28;20445;-62
2023/04/12 01:25:57;;;;;;;4.50;1.90;;;;;;;18.53;56.15;99659.13;5095121;28;20399;-62
2023/04/12 01:28:30;;;;;;;3.73;2.17;;;;;;;18.53;56.44;99658.31;5088477;28;20440;-62
2023/04/12 01:30:55;;;;;;;3.90;2.00;;;;;;;18.53;56.28;99656.28;5077714;28;20390;-62
2023/04/12 01:33:21;;;;;;;4.30;2.27;;;;;;;18.54;56.30;99649.34;5093929;28;20448;-62
2023/04/12 01:35:46;;;;;;;6.53;2.67;;;;;;;18.51;56.16;99650.13;5075295;28;20201;-62
2023/04/12 01:38:12;;;;;;;3.93;2.37;;;;;;;18.53;56.47;99638.28;5058626;28;20167;-62
2023/04/12 01:40:39;;;;;;;3.80;1.73;;;;;;;18.54;56.43;99640.75;5057298;28;20178;-62
2023/04/12 01:43:11;;;;;;;3.87;2.43;;;;;;;18.51;56.51;99638.69;5087914;28;20209;-62
2023/04/12 01:45:37;;;;;;;3.97;1.30;;;;;;;18.51;56.63;99632.16;5095731;28;20415;-62
2023/04/12 01:48:03;;;;;;;4.67;2.07;;;;;;;18.49;56.38;99628.88;5090162;28;20442;-62
2023/04/12 01:51:04;;;;;;;2.90;1.83;;;;;;;18.48;56.53;99619.50;5058257;28;20163;-62
2023/04/12 01:53:43;;;;;;;3.60;1.83;;;;;;;18.47;56.87;99612.09;5085536;28;20464;-62
2023/04/12 01:56:09;;;;;;;4.33;2.03;;;;;;;18.45;56.73;99605.97;5057251;28;20421;-62
2023/04/12 01:58:35;;;;;;;3.33;1.70;;;;;;;18.44;56.83;99592.09;5040491;28;20458;-62
2023/04/12 02:01:00;;;;;;;3.30;1.80;;;;;;;18.45;56.84;99594.56;5076921;28;20188;-62
2023/04/12 02:03:29;;;;;;;2.60;1.63;;;;;;;18.43;56.59;99591.28;5074723;28;20206;-62
2023/04/12 02:05:55;;;;;;;3.03;1.63;;;;;;;18.46;56.60;99583.94;5070434;28;20206;-62
2023/04/12 02:08:20;;;;;;;3.37;1.80;;;;;;;18.44;56.85;99584.34;5076197;28;20437;-62
2023/04/12 02:10:46;;;;;;;3.13;1.70;;;;;;;18.44;56.78;99574.94;5059155;28;20439;-61
2023/04/12 02:13:11;;;;;;;4.73;2.07;;;;;;;18.45;56.60;99563.13;5075710;28;20175;-62
2023/04/12 02:15:37;;;;;;;6.27;2.07;;;;;;;18.42;57.00;99554.53;5085391;28;20191;-61
2023/04/12 02:18:02;;;;;;;3.53;1.57;;;;;;;18.42;56.87;99558.19;5073402;28;20152;-62
2023/04/12 02:20:28;;;;;;;4.30;2.13;;;;;;;18.43;56.68;99559.00;5075518;28;20183;-62
2023/04/12 02:22:53;;;;;;;4.33;2.03;;;;;;;18.43;56.62;99551.28;5069071;28;20178;-62
2023/04/12 02:25:19;;;;;;;4.20;1.60;;;;;;;18.43;56.89;99539.84;5091616;28;20193;-62
2023/04/12 02:27:45;;;;;;;3.20;1.90;;;;;;;18.42;56.75;99532.47;5088419;28;20182;-62
2023/04/12 02:30:11;;;;;;;3.23;1.40;;;;;;;18.41;56.81;99536.53;5072234;28;20167;-62
2023/04/12 02:32:43;;;;;;;4.97;1.90;;;;;;;18.41;57.06;99530.81;5055309;28;20527;-62
2023/04/12 02:35:10;;;;;;;3.67;1.87;;;;;;;18.40;56.90;99522.63;5089869;28;20758;-62
2023/04/12 02:37:36;;;;;;;4.10;2.00;;;;;;;18.39;57.23;99518.97;5074303;28;20442;-62
2023/04/12 02:40:08;;;;;;;2.90;1.47;;;;;;;18.41;56.97;99510.81;5053968;28;20430;-62
2023/04/12 02:42:33;;;;;;;3.17;1.80;;;;;;;18.44;57.03;99507.19;5046044;28;20243;-62
2023/04/12 02:44:59;;;;;;;2.83;1.60;;;;;;;18.45;57.04;99499.41;5086327;28;20436;-62
2023/04/12 02:47:27;;;;;;;2.23;1.27;;;;;;;18.45;56.81;99496.53;5089225;28;20192;-62
2023/04/12 02:49:53;;;;;;;2.47;1.63;;;;;;;18.47;56.89;99488.41;5090395;28;20207;-62
2023/04/12 02:52:18;;;;;;;3.27;1.73;;;;;;;18.46;56.82;99479.00;5091155;28;20493;-62
2023/04/12 02:54:43;;;;;;;3.30;1.50;;;;;;;18.47;56.94;99466.34;5079423;28;20203;-62
2023/04/12 02:57:10;;;;;;;3.60;2.00;;;;;;;18.47;56.85;99460.63;5080632;28;21070;-62
2023/04/12 02:59:36;;;;;;;3.17;1.67;;;;;;;18.49;56.72;99452.50;5083452;28;20175;-62
2023/04/12 03:02:01;;;;;;;3.30;2.03;;;;;;;18.49;56.72;99451.66;5072650;28;20430;-62
2023/04/12 03:04:29;;;;;;;2.80;1.50;;;;;;;18.50;56.65;99441.84;5079368;28;20166;-62
2023/04/12 03:06:55;;;;;;;3.93;1.50;;;;;;;18.48;56.90;99442.28;5091888;28;20274;-62
2023/04/12 03:09:21;;;;;;;3.20;2.00;;;;;;;18.49;57.21;99434.50;5091862;28;20433;-61
2023/04/12 03:11:47;;;;;;;3.10;1.70;;;;;;;18.47;56.78;99423.47;5071073;28;20468;-61
2023/04/12 03:14:12;;;;;;;2.43;1.50;;;;;;;18.48;56.91;99430.84;5075211;28;20199;-61
2023/04/12 03:16:37;;;;;;;3.70;1.43;;;;;;;18.47;57.04;99416.94;5092439;28;20158;-62
2023/04/12 03:19:04;;;;;;;4.10;1.80;;;;;;;18.48;57.11;99405.13;5078156;28;20181;-62
2023/04/12 03:21:32;;;;;;;4.57;1.80;;;;;;;18.48;57.09;99405.13;5072379;28;20270;-61
2023/04/12 03:24:00;;;;;;;2.80;1.70;;;;;;;18.48;57.12;99387.97;5075515;28;20429;-61
2023/04/12 03:26:25;;;;;;;3.17;1.70;;;;;;;18.48;57.17;99393.69;5072749;28;20399;-62
2023/04/12 03:28:58;;;;;;;3.03;1.50;;;;;;;18.47;56.92;99386.31;5060194;28;20427;-62
2023/04/12 03:31:23;;;;;;;2.67;1.70;;;;;;;18.47;57.01;99386.31;5089556;28;20191;-62
2023/04/12 03:33:49;;;;;;;3.97;1.87;;;;;;;18.45;57.62;99383.06;5092786;28;20447;-62
2023/04/12 03:36:14;;;;;;;3.90;1.70;;;;;;;18.44;57.16;99381.44;5084999;28;20198;-62
2023/04/12 03:38:39;;;;;;;2.87;1.73;;;;;;;18.40;57.13;99380.59;5071503;28;20697;-62
2023/04/12 03:41:05;;;;;;;3.47;1.70;;;;;;;18.41;57.09;99382.22;5071088;28;20176;-62
2023/04/12 03:43:34;;;;;;;2.20;1.50;;;;;;;18.42;57.14;99380.19;5088346;28;20216;-62
2023/04/12 03:46:02;;;;;;;4.00;2.10;;;;;;;18.40;57.31;99379.75;5091229;28;20183;-62
2023/04/12 03:48:27;;;;;;;3.20;1.97;;;;;;;18.38;57.46;99362.22;5083146;28;20438;-62
2023/04/12 03:50:53;;;;;;;2.83;1.47;;;;;;;18.40;57.08;99354.88;5053698;28;20426;-62
2023/04/12 03:53:19;;;;;;;3.00;1.60;;;;;;;18.41;57.29;99358.56;5071426;28;20172;-62
2023/04/12 03:55:45;;;;;;;2.73;1.33;;;;;;;18.39;57.22;99347.53;5083693;28;20191;-62
2023/04/12 03:58:12;;;;;;;2.73;1.77;;;;;;;18.40;57.08;99342.59;5089396;28;20491;-62
2023/04/12 04:00:38;;;;;;;3.50;1.40;;;;;;;18.39;57.17;99344.66;5087777;28;20231;-62
2023/04/12 04:03:04;;;;;;;2.70;1.53;;;;;;;18.38;57.15;99331.59;5066596;28;20430;-62
2023/04/12 04:05:30;;;;;;;2.10;1.20;;;;;;;18.38;57.20;99334.47;5088392;28;20200;-62
2023/04/12 04:07:59;;;;;;;3.40;1.70;;;;;;;18.36;57.34;99328.31;5068940;28;20191;-62
2023/04/12 04:10:27;;;;;;;2.00;1.40;;;;;;;18.36;57.28;99334.03;5071223;28;20468;-62
2023/04/12 04:12:53;;;;;;;2.70;1.40;;;;;;;18.35;57.35;99329.53;5072705;28;20761;-62
2023/04/12 04:15:19;;;;;;;2.53;1.63;;;;;;;18.34;57.55;99330.78;5089600;28;20457;-62
2023/04/12 04:17:46;;;;;;;2.63;1.40;;;;;;;18.36;57.48;99321.78;5068927;28;20228;-62
2023/04/12 04:20:12;;;;;;;2.07;1.30;;;;;;;18.38;57.35;99319.34;5080609;28;20183;-62
2023/04/12 04:22:38;;;;;;;3.00;1.67;;;;;;;18.37;57.27;99312.78;5071565;28;20424;-61
2023/04/12 04:25:04;;;;;;;4.43;1.50;;;;;;;18.38;57.35;99320.16;5083741;28;20433;-62
2023/04/12 04:27:33;;;;;;;3.10;1.70;;;;;;;18.40;57.25;99323.44;5087495;28;20167;-62
2023/04/12 04:30:01;;;;;;;2.37;1.40;;;;;;;18.44;57.11;99312.00;5081953;28;20478;-62
2023/04/12 04:32:30;;;;;;;2.50;1.47;;;;;;;18.48;57.00;99312.84;5066606;28;20422;-62
2023/04/12 04:34:58;;;;;;;2.57;1.40;;;;;;;18.47;57.25;99303.44;5067232;28;20517;-62
2023/04/12 04:37:27;;;;;;;3.13;1.77;;;;;;;18.44;57.32;99309.97;5069419;28;20430;-62
2023/04/12 04:39:52;;;;;;;3.20;1.97;;;;;;;18.44;57.08;99309.97;5047540;28;20464;-61
2023/04/12 04:42:18;;;;;;;3.13;1.53;;;;;;;18.44;57.06;99306.28;5072222;28;20430;-62
2023/04/12 04:44:43;;;;;;;2.63;1.40;;;;;;;18.44;57.08;99307.13;5086705;28;20163;-62
2023/04/12 04:47:09;;;;;;;3.50;1.57;;;;;;;18.43;57.01;99299.78;5085498;28;20183;-62
2023/04/12 04:49:36;;;;;;;2.93;1.40;;;;;;;18.45;57.13;99296.50;5073412;28;20175;-62
2023/04/12 04:52:01;;;;;;;3.27;1.30;;;;;;;18.45;57.29;99293.63;5087654;28;20238;-62
2023/04/12 04:54:27;;;;;;;2.60;1.50;;;;;;;18.45;57.12;99302.19;5088091;28;20822;-62
2023/04/12 04:56:52;;;;;;;3.50;1.83;;;;;;;18.46;57.25;99286.72;5057178;28;20188;-62
2023/04/12 04:59:18;;;;;;;2.40;1.30;;;;;;;18.44;57.11;99292.84;5068201;28;20156;-62
2023/04/12 05:01:44;;;;;;;3.50;1.50;;;;;;;18.44;57.14;99289.13;5070467;28;20188;-62
2023/04/12 05:04:10;;;;;;;3.00;1.57;;;;;;;18.44;57.32;99272.00;5068200;28;20386;-62
2023/04/12 05:06:35;;;;;;;2.37;1.27;;;;;;;18.44;57.15;99263.44;5089179;28;20461;-62
2023/04/12 05:09:01;;;;;;;2.40;1.30;;;;;;;18.45;57.18;99256.47;5049759;28;20191;-62
2023/04/12 05:11:26;;;;;;;3.10;1.77;;;;;;;18.44;57.28;99243.41;5068351;28;20182;-62
2023/04/12 05:13:52;;;;;;;4.83;1.80;;;;;;;18.43;57.44;99234.03;5070142;28;20236;-62
2023/04/12 05:16:17;;;;;;;3.43;1.47;;;;;;;18.42;57.44;99228.72;5067644;28;20171;-62
2023/04/12 05:18:43;;;;;;;1.90;1.10;;;;;;;18.38;57.45;99228.72;5070409;28;20179;-62
2023/04/12 05:21:09;;;;;;;2.83;1.50;;;;;;;18.37;57.30;99209.94;5068211;28;20179;-62
2023/04/12 05:23:39;;;;;;;2.67;1.47;;;;;;;18.36;57.53;99219.72;5067822;28;20163;-62
2023/04/12 05:26:05;;;;;;;1.90;1.20;;;;;;;18.38;57.35;99207.91;5081520;28;20205;-62
2023/04/12 05:28:30;;;;;;;3.33;1.47;;;;;;;18.36;57.61;99214.00;5091801;28;20409;-61
2023/04/12 05:30:56;;;;;;;2.50;1.37;;;;;;;18.36;57.50;99208.31;5089654;28;20187;-62
2023/04/12 05:33:21;;;;;;;2.40;1.30;;;;;;;18.36;57.54;99202.59;5090261;28;20531;-62
2023/04/12 05:35:47;;;;;;;3.20;1.40;;;;;;;18.37;57.42;99204.22;5063439;28;20425;-62
2023/04/12 05:38:12;;;;;;;2.40;1.30;;;;;;;18.37;57.36;99197.69;5085848;28;20550;-62
2023/04/12 05:40:38;;;;;;;2.90;1.70;;;;;;;18.35;57.64;99189.53;5086718;28;20797;-62
2023/04/12 05:43:03;;;;;;;3.33;1.50;;;;;;;18.34;57.44;99189.94;5073322;28;20200;-62
2023/04/12 05:45:29;;;;;;;2.70;1.27;;;;;;;18.35;57.81;99188.69;5065857;28;20152;-61
2023/04/12 05:47:55;;;;;;;2.53;1.37;;;;;;;18.35;57.59;99178.09;5051102;28;20183;-62
2023/04/12 05:50:20;;;;;;;2.90;1.47;;;;;;;18.36;57.44;99176.06;5088585;28;20175;-62
2023/04/12 05:52:49;;;;;;;2.50;1.53;;;;;;;18.34;57.80;99175.63;5088206;28;20171;-61
2023/04/12 05:55:16;;;;;;;2.30;1.37;;;;;;;18.31;57.73;99165.81;5085387;28;20227;-62
2023/04/12 05:57:43;;;;;;;3.43;1.63;;;;;;;18.33;57.69;99162.59;5087031;28;20461;-62
2023/04/12 06:00:12;;;;;;;2.70;1.53;;;;;;;18.31;57.69;99165.00;5064039;28;20475;-62
2023/04/12 06:02:39;;;;;;;3.47;1.57;;;;;;;18.33;57.71;99162.59;5068604;28;20406;-62
2023/04/12 06:05:05;;;;;;;2.30;1.20;;;;;;;18.32;57.49;99163.78;5049879;28;20400;-62
2023/04/12 06:07:30;;;;;;;2.30;1.23;;;;;;;18.33;57.75;99160.56;5070381;28;20464;-62
2023/04/12 06:09:56;;;;;;;2.83;1.40;;;;;;;18.36;57.67;99153.22;5068108;28;20156;-62
2023/04/12 06:12:21;;;;;;;1.93;1.30;;;;;;;18.35;57.42;99140.94;5071031;28;20199;-62
2023/04/12 06:14:47;;;;;;;1.83;1.10;;;;;;;18.37;57.73;99134.84;5068271;28;20200;-62
2023/04/12 06:17:12;;;;;;;4.03;1.33;;;;;;;18.36;57.71;99121.78;5069767;28;20182;-62
2023/04/12 06:19:37;;;;;;;2.47;1.30;;;;;;;18.39;57.52;99123.81;5086864;28;20189;-62
2023/04/12 06:22:03;;;;;;;2.30;1.37;;;;;;;18.40;57.39;99109.13;5057573;28;20208;-62
2023/04/12 06:24:28;;;;;;;2.63;1.63;;;;;;;18.39;57.49;99101.78;5092323;28;20136;-62
2023/04/12 06:26:54;;;;;;;2.37;1.20;;;;;;;18.42;57.32;99094.41;5091431;28;20195;-62
2023/04/12 06:29:20;;;;;;;2.30;1.20;;;;;;;18.43;57.78;99096.88;5088509;28;20182;-62
2023/04/12 06:31:45;;;;;;;3.43;1.57;;;;;;;18.42;57.42;99089.50;5079424;28;20445;-62
2023/04/12 06:34:11;;;;;;;3.77;1.53;;;;;;;18.43;57.56;99088.31;5067965;28;20285;-62
2023/04/12 06:36:38;;;;;;;1.90;1.00;;;;;;;18.45;57.60;99071.56;5089320;28;20175;-62
2023/04/12 06:39:05;;;;;;;2.10;1.03;;;;;;;18.43;57.42;99065.44;5058039;28;20665;-62
2023/04/12 06:41:31;;;;;;;2.60;1.50;;;;;;;18.42;57.58;99063.78;5084110;28;20443;-62
2023/04/12 06:43:56;;;;;;;2.27;1.33;;;;;;;18.42;57.46;99055.22;5068950;28;20426;-62
2023/04/12 06:46:28;;;;;;;2.70;1.30;;;;;;;18.42;57.43;99046.63;5070688;28;20241;-62
2023/04/12 06:48:54;;;;;;;4.20;1.33;;;;;;;18.44;57.45;99060.53;5073114;28;20439;-62
2023/04/12 06:51:19;;;;;;;2.60;1.30;;;;;;;18.40;57.46;99051.13;5072503;28;20432;-62
2023/04/12 06:53:45;;;;;;;2.30;1.30;;;;;;;18.42;57.49;99049.50;5069841;28;20694;-62
2023/04/12 06:56:10;;;;;;;2.20;1.33;;;;;;;18.42;57.38;99058.06;5050139;28;20247;-62
2023/04/12 06:58:36;;;;;;;2.57;1.20;;;;;;;18.42;57.65;99058.06;5070289;28;20246;-62
2023/04/12 07:01:05;;;;;;;2.10;1.10;;;;;;;18.39;57.44;99053.19;5076276;28;20170;-62
2023/04/12 07:03:32;;;;;;;2.17;1.20;;;;;;;18.39;57.52;99040.94;5094906;28;20187;-62
2023/04/12 07:05:59;;;;;;;2.07;1.20;;;;;;;18.38;57.45;99033.59;5092709;28;20518;-62
2023/04/12 07:08:25;;;;;;;2.40;1.30;;;;;;;18.35;57.99;99038.09;5043197;28;20464;-62
2023/04/12 07:10:57;;;;;;;2.13;1.10;;;;;;;18.34;57.86;99025.03;5073568;28;20438;-62
2023/04/12 07:13:22;;;;;;;2.20;1.30;;;;;;;18.32;57.39;99010.31;5073580;28;20168;-62
2023/04/12 07:15:49;;;;;;;2.60;1.30;;;;;;;18.33;57.76;99003.41;5077107;28;20440;-62
2023/04/12 07:18:15;;;;;;;2.20;1.20;;;;;;;18.35;57.61;99000.13;5076066;28;20183;-62
2023/04/12 07:20:40;;;;;;;4.70;1.70;;;;;;;18.35;57.82;98998.09;5072896;28;20424;-62
2023/04/12 07:23:05;;;;;;;2.10;1.30;;;;;;;18.35;57.83;98989.53;5056799;28;20195;-62
2023/04/12 07:25:31;;;;;;;3.00;1.40;;;;;;;18.33;57.81;98983.41;5079422;28;20181;-62
2023/04/12 07:27:56;;;;;;;2.27;1.33;;;;;;;18.31;57.81;98985.81;5095938;28;20151;-62
2023/04/12 07:30:22;;;;;;;2.50;1.67;;;;;;;18.37;58.03;98989.13;5095034;28;20170;-62
2023/04/12 07:32:47;;;;;;;3.17;1.33;;;;;;;18.34;57.73;98987.91;5060497;28;20176;-62
2023/04/12 07:35:13;;;;;;;2.00;1.13;;;;;;;18.35;57.66;98989.53;5073744;28;20207;-61
2023/04/12 07:37:38;;;;;;;2.60;1.20;;;;;;;18.34;57.90;98993.59;5085267;28;20175;-61
2023/04/12 07:40:05;;;;;;;2.43;1.50;;;;;;;18.35;57.86;98992.38;5090203;28;20171;-61
2023/04/12 07:42:30;;;;;;;2.47;1.27;;;;;;;18.35;57.56;99000.94;5077408;28;20243;-61
2023/04/12 07:44:56;;;;;;;2.60;1.30;;;;;;;18.36;57.83;98990.34;5070134;28;20452;-62
2023/04/12 07:47:21;;;;;;;2.43;1.43;;;;;;;18.35;58.13;98992.38;5059995;28;20197;-62
2023/04/12 07:49:47;;;;;;;2.27;1.23;;;;;;;18.38;57.80;98987.88;5090874;28;20176;-62
2023/04/12 07:52:12;;;;;;;2.27;1.20;;;;;;;18.35;57.64;98983.81;5090851;28;20731;-62
2023/04/12 07:54:38;;;;;;;2.03;1.30;;;;;;;18.36;57.56;98984.63;5076524;28;20204;-62
2023/04/12 07:57:03;;;;;;;2.20;1.30;;;;;;;18.37;57.70;98980.53;5072954;28;20175;-62
2023/04/12 07:59:30;;;;;;;2.33;1.40;;;;;;;18.35;57.60;98972.38;5072143;28;20217;-62
2023/04/12 08:01:55;;;;;;;2.23;1.30;;;;;;;18.37;57.65;98967.06;5048300;28;20191;-62
2023/04/12 08:04:21;;;;;;;3.93;1.10;;;;;;;18.36;57.95;98968.28;5054497;28;20433;-62
2023/04/12 08:06:46;;;;;;;2.23;1.30;;;;;;;18.36;57.87;98967.50;5089868;28;20218;-62
2023/04/12 08:09:12;;;;;;;2.10;1.00;;;;;;;18.35;57.69;98965.84;5071686;28;20175;-62
2023/04/12 08:11:37;;;;;;;2.60;1.13;;;;;;;18.34;57.89;98961.34;5073770;28;20164;-62
2023/04/12 08:14:02;;;;;;;3.23;1.30;;;;;;;18.31;57.61;98960.09;5075435;28;20192;-62
2023/04/12 08:16:28;;;;;;;2.47;1.30;;;;;;;18.33;57.85;98951.97;5091333;28;20182;-62
2023/04/12 08:18:53;;;;;;;3.77;1.50;;;;;;;18.34;57.83;98958.50;5095258;28;20179;-62
2023/04/12 08:21:19;;;;;;;2.20;1.20;;;;;;;18.34;57.84;98962.19;5093135;28;20163;-62
2023/04/12 08:23:44;;;;;;;5.00;1.70;;;;;;;18.33;58.01;98966.28;5077202;28;20191;-62
2023/04/12 08:26:10;;;;;;;4.80;1.57;;;;;;;18.32;57.79;98967.47;5075294;28;20139;-62
2023/04/12 08:28:35;;;;;;;2.00;1.10;;;;;;;18.33;57.82;98974.84;5085876;28;20186;-62
2023/04/12 08:31:01;;;;;;;2.20;1.30;;;;;;;18.33;57.88;98966.28;5095356;28;20151;-62
2023/04/12 08:33:27;;;;;;;2.50;1.40;;;;;;;18.33;57.83;98962.59;5077480;28;20179;-62
2023/04/12 08:35:52;;;;;;;2.47;1.30;;;;;;;18.32;57.63;98972.34;5077314;28;20444;-62
2023/04/12 08:38:18;;;;;;;2.50;1.40;;;;;;;18.31;57.59;98971.53;5080488;28;20242;-62
2023/04/12 08:40:45;;;;;;;2.13;1.27;;;;;;;18.31;57.97;98965.81;5070259;28;20258;-62
2023/04/12 08:43:10;;;;;;;2.80;1.37;;;;;;;18.29;57.96;98968.28;5073018;28;20163;-62
2023/04/12 08:45:36;;;;;;;2.83;1.30;;;;;;;18.31;57.72;98976.44;5071961;28;20410;-62
2023/04/12 08:48:02;;;;;;;2.37;1.20;;;;;;;18.32;57.69;98990.31;5091631;28;20171;-62
2023/04/12 08:50:28;;;;;;;2.40;1.20;;;;;;;18.30;57.72;98987.03;5060686;28;20210;-62
2023/04/12 08:52:53;;;;;;;4.10;1.97;;;;;;;18.30;57.88;98984.19;5094380;28;20654;-62
2023/04/12 08:55:19;;;;;;;2.00;1.20;;;;;;;18.33;57.65;98956.88;5092082;28;20202;-62
2023/04/12 08:57:44;;;;;;;4.90;1.53;;;;;;;18.34;57.81;98961.34;5093857;28;20292;-62
2023/04/12 09:00:11;;;;;;;1.80;1.10;;;;;;;18.31;57.91;98967.88;5076135;28;20194;-62
2023/04/12 09:02:37;;;;;;;2.40;1.23;;;;;;;18.31;57.93;98974.38;5094576;28;20170;-62
2023/04/12 09:05:03;;;;;;;3.10;1.37;;;;;;;18.34;57.87;98973.59;5102762;28;20433;-62
2023/04/12 09:07:29;;;;;;;2.10;1.10;;;;;;;18.36;57.79;98968.28;5098745;28;20225;-62
2023/04/12 09:09:56;;;;;;;2.53;1.10;;;;;;;18.38;57.75;98959.31;5083619;28;20215;-62
2023/04/12 09:12:23;;;;;;;2.73;1.27;;;;;;;18.40;57.60;98951.13;5077988;28;20418;-62
2023/04/12 09:15:03;;;;;;;2.03;1.00;;;;;;;18.43;57.57;98951.13;5076750;28;20450;-62
2023/04/12 09:17:29;;;;;;;3.77;1.40;;;;;;;18.44;57.21;98958.47;5077657;28;20416;-62
2023/04/12 09:19:55;;;;;;;3.00;1.47;;;;;;;18.45;57.49;98971.53;5079330;28;20434;-62
2023/04/12 09:22:37;;;;;;;4.10;1.50;;;;;;;18.43;57.30;98971.16;5077481;28;20180;-62
2023/04/12 09:25:03;;;;;;;2.90;1.33;;;;;;;18.43;57.36;98974.00;5060946;28;20183;-62
2023/04/12 09:27:28;;;;;;;2.00;1.10;;;;;;;18.43;57.66;98974.00;5080425;28;20425;-62
2023/04/12 09:30:14;;;;;;;2.10;1.30;;;;;;;18.42;57.68;98963.78;5060740;28;20175;-62
2023/04/12 09:32:40;;;;;;;3.00;1.13;;;;;;;18.45;57.71;98956.41;5077541;28;20172;-62
2023/04/12 09:35:06;;;;;;;2.67;1.30;;;;;;;18.43;57.49;98954.00;5093463;28;20437;-61
2023/04/12 09:37:31;;;;;;;2.27;1.10;;;;;;;18.41;57.48;98947.84;5093872;28;20181;-61
2023/04/12 09:40:07;;;;;;;2.00;1.27;;;;;;;18.42;57.67;98937.25;5096591;28;20418;-61
2023/04/12 09:42:33;;;;;;;2.43;1.10;;;;;;;18.42;57.68;98938.06;5094594;28;20241;-61
2023/04/12 09:45:00;;;;;;;2.27;1.10;;;;;;;18.39;57.83;98938.91;5097924;28;20480;-61
2023/04/12 09:47:38;;;;;;;1.90;1.17;;;;;;;18.37;57.93;98935.63;5097703;28;20164;-61
2023/04/12 09:50:06;;;;;;;3.20;1.10;;;;;;;18.36;57.85;98942.56;5097615;28;20472;-61
2023/04/12 09:52:39;;;;;;;2.60;1.10;;;;;;;18.36;58.04;98945.44;5081650;28;20453;-61
2023/04/12 09:55:08;;;;;;;2.60;1.17;;;;;;;18.36;57.89;98945.44;5096173;28;20545;-61
2023/04/12 09:57:44;;;;;;;2.10;1.10;;;;;;;18.35;57.68;98934.41;5073278;28;20489;-61
2023/04/12 10:00:13;;;;;;;2.83;1.17;;;;;;;18.36;57.64;98928.28;5059527;28;20458;-61
2023/04/12 10:02:40;;;;;;;4.47;1.50;;;;;;;18.36;57.64;98931.13;5076302;28;20809;-62
2023/04/12 10:05:06;;;;;;;3.10;1.10;;;;;;;18.35;58.00;98923.81;5092414;28;20429;-62
2023/04/12 10:07:31;;;;;;;2.03;1.10;;;;;;;18.35;57.98;98914.41;5090127;28;20480;-62
2023/04/12 10:09:57;;;;;;;2.20;1.10;;;;;;;18.34;58.01;98927.91;5076445;28;20179;-62
2023/04/12 10:12:22;;;;;;;2.37;1.10;;;;;;;18.33;57.67;98923.41;5063229;28;20195;-62
2023/04/12 10:14:48;;;;;;;2.10;1.20;;;;;;;18.34;57.75;98919.31;5083503;28;20194;-62
2023/04/12 10:17:13;;;;;;;4.20;1.40;;;;;;;18.33;57.66;98912.00;5087568;28;20238;-62
2023/04/12 10:19:39;;;;;;;2.97;1.40;;;;;;;18.33;57.78;98912.00;5075233;28;20186;-62
2023/04/12 10:22:04;;;;;;;3.90;1.23;;;;;;;18.33;57.98;98912.00;5076786;28;20178;-62
2023/04/12 10:24:30;;;;;;;3.60;1.20;;;;;;;18.31;57.66;98900.09;5093388;28;20222;-62
2023/04/12 10:26:59;;;;;;;4.47;1.10;;;;;;;18.32;57.83;98901.75;5059543;28;20183;-62
2023/04/12 10:29:32;;;;;;;2.07;1.10;;;;;;;18.31;57.64;98894.38;5084658;28;20444;-62
2023/04/12 10:32:21;;;;;;;2.20;1.20;;;;;;;18.34;57.75;98884.22;5096758;28;20405;-62
2023/04/12 10:34:55;;;;;;;4.27;1.47;;;;;;;18.33;57.88;98888.31;5078660;28;20471;-62
2023/04/12 10:37:21;;;;;;;2.40;1.33;;;;;;;18.33;57.68;98877.69;5096193;28;20788;-62
2023/04/12 10:39:52;;;;;;;5.40;1.77;;;;;;;18.37;57.39;98884.19;5077972;28;20437;-62
2023/04/12 10:42:28;;;;;;;2.63;1.30;;;;;;;18.38;57.76;98882.16;5076927;28;20188;-62
2023/04/12 10:45:22;;;;;;;3.70;1.47;;;;;;;18.40;57.65;98871.94;5064737;28;20548;-62
2023/04/12 10:47:47;;;;;;;4.90;1.40;;;;;;;18.42;57.37;98866.63;5094346;28;20436;-62
2023/04/12 10:50:26;;;;;;;3.90;1.43;;;;;;;18.42;57.43;98866.63;5093408;28;20402;-62
2023/04/12 10:53:14;;;;;;;3.07;1.23;;;;;;;18.43;57.38;98870.31;5089408;28;20213;-62
2023/04/12 10:55:41;;;;;;;4.70;1.30;;;;;;;18.43;57.34;98859.69;5088650;28;20457;-62
2023/04/12 10:58:07;;;;;;;3.93;1.37;;;;;;;18.42;57.37;98863.75;5080177;28;20551;-62
2023/04/12 11:00:55;;;;;;;3.00;1.20;;;;;;;18.43;57.36;98859.69;5069678;28;20430;-62
2023/04/12 11:03:21;;;;;;;2.80;1.20;;;;;;;18.43;57.59;98864.59;5074035;28;20510;-62
2023/04/12 11:06:05;;;;;;;3.53;1.33;;;;;;;18.43;57.63;98851.13;5091466;28;20710;-62
2023/04/12 11:08:31;;;;;;;4.83;1.50;;;;;;;18.42;57.59;98846.63;5089143;28;20193;-62
2023/04/12 11:11:01;;;;;;;3.33;1.40;;;;;;;18.42;57.69;98843.75;5085385;28;20442;-62
2023/04/12 11:13:27;;;;;;;3.13;1.57;;;;;;;18.41;57.58;98836.41;5068938;28;20418;-62
2023/04/12 11:15:56;;;;;;;2.73;1.30;;;;;;;18.41;57.47;98842.13;5069917;28;20457;-62
2023/04/12 11:18:22;;;;;;;5.53;1.87;;;;;;;18.42;57.41;98845.81;5070578;28;20683;-62
2023/04/12 11:20:47;;;;;;;4.10;1.63;;;;;;;18.42;57.63;98832.31;5067731;28;20425;-62
2023/04/12 11:23:13;;;;;;;2.37;1.20;;;;;;;18.43;57.51;98830.28;5069795;28;20186;-62
2023/04/12 11:25:39;;;;;;;4.73;1.40;;;;;;;18.42;57.75;98838.03;5058797;28;20191;-62
2023/04/12 11:28:04;;;;;;;3.07;1.10;;;;;;;18.40;57.56;98843.38;5055750;28;20232;-62
2023/04/12 11:30:29;;;;;;;2.97;1.37;;;;;;;18.39;57.67;98829.50;5087998;28;20456;-62
2023/04/12 11:32:55;;;;;;;2.60;1.37;;;;;;;18.42;57.51;98835.19;5071860;28;20179;-62
2023/04/12 11:35:26;;;;;;;5.53;1.63;;;;;;;18.40;57.68;98814.78;5089612;28;20191;-62